createdAt,value
2019-02-02T00:00:45.042Z,33.10
2019-02-02T00:03:19.122Z,33.50
2019-02-02T00:05:51.758Z,33.60
2019-02-02T00:08:24.610Z,33.70
2019-02-02T00:10:57.755Z,33.70
2019-02-02T00:13:32.794Z,33.70
2019-02-02T00:16:05.451Z,33.70
2019-02-02T00:18:59.811Z,33.80
2019-02-02T00:21:29.712Z,33.80
2019-02-02T00:24:05.208Z,33.60
2019-02-02T00:26:38.008Z,33.10
2019-02-02T00:29:11.879Z,32.80
2019-02-02T00:31:44.656Z,32.30
2019-02-02T00:34:22.165Z,32.40
2019-02-02T00:36:58.821Z,32.50
2019-02-02T00:39:29.833Z,32.70
2019-02-02T00:42:02.450Z,32.80
2019-02-02T00:44:35.993Z,32.90
2019-02-02T00:47:08.746Z,33.00
2019-02-02T00:49:41.474Z,33.10
2019-02-02T00:52:14.151Z,32.90
2019-02-02T00:54:47.184Z,32.80
2019-02-02T00:57:22.606Z,32.50
2019-02-02T00:59:56.334Z,32.30
2019-02-02T01:02:28.839Z,32.50
2019-02-02T01:05:03.062Z,32.60
2019-02-02T01:07:35.675Z,32.70
2019-02-02T01:10:10.676Z,32.40
2019-02-02T01:12:43.487Z,32.50
2019-02-02T01:18:04.059Z,32.80
2019-02-02T01:20:42.412Z,33.10
2019-02-02T01:23:15.472Z,33.20
2019-02-02T01:25:48.120Z,33.50
2019-02-02T01:28:23.170Z,33.90
2019-02-02T01:30:55.804Z,34.10
2019-02-02T01:33:29.365Z,34.20
2019-02-02T01:36:02.489Z,34.30
2019-02-02T01:38:35.805Z,34.50
2019-02-02T01:41:09.173Z,34.90
2019-02-02T01:43:42.639Z,35.20
2019-02-02T01:46:15.777Z,35.60
2019-02-02T01:48:48.586Z,35.90
2019-02-02T01:51:21.150Z,36.30
2019-02-02T01:53:53.707Z,36.20
2019-02-02T01:56:29.583Z,36.60
2019-02-02T01:59:02.632Z,36.30
2019-02-02T02:01:35.527Z,36.50
2019-02-02T02:04:09.128Z,36.60
2019-02-02T02:06:42.279Z,36.40
2019-02-02T02:09:15.967Z,37.40
2019-02-02T02:11:52.213Z,38.10
2019-02-02T02:14:24.767Z,38.50
2019-02-02T02:16:57.795Z,38.50
2019-02-02T02:19:31.283Z,38.30
2019-02-02T02:22:04.071Z,38.10
2019-02-02T02:24:36.659Z,37.10
2019-02-02T02:27:09.606Z,36.30
2019-02-02T02:29:42.384Z,35.50
2019-02-02T02:32:15.087Z,34.90
2019-02-02T02:34:48.181Z,34.40
2019-02-02T02:37:21.517Z,33.90
2019-02-02T02:39:54.778Z,33.50
2019-02-02T02:42:29.622Z,33.20
2019-02-02T02:45:04.392Z,33.00
2019-02-02T02:47:37.359Z,32.70
2019-02-02T02:50:18.034Z,32.40
2019-02-02T02:52:50.894Z,32.10
2019-02-02T02:55:23.511Z,32.00
2019-02-02T02:57:56.259Z,31.80
2019-02-02T03:00:30.844Z,31.80
2019-02-02T03:03:03.339Z,31.60
2019-02-02T03:05:37.142Z,31.50
2019-02-02T03:08:09.879Z,31.40
2019-02-02T03:10:43.795Z,31.30
2019-02-02T03:13:16.764Z,31.30
2019-02-02T03:15:50.495Z,31.20
2019-02-02T03:18:23.201Z,31.10
2019-02-02T03:20:55.697Z,31.00
2019-02-02T03:23:28.274Z,30.80
2019-02-02T03:26:02.836Z,30.70
2019-02-02T03:28:37.137Z,30.60
2019-02-02T03:31:09.718Z,30.50
2019-02-02T03:33:42.335Z,30.50
2019-02-02T03:36:15.152Z,30.30
2019-02-02T03:38:47.743Z,30.20
2019-02-02T03:41:20.603Z,30.20
2019-02-02T03:43:55.945Z,30.20
2019-02-02T03:46:28.811Z,30.10
2019-02-02T03:49:01.388Z,30.10
2019-02-02T03:51:34.265Z,30.10
2019-02-02T03:54:09.017Z,30.10
2019-02-02T03:56:48.120Z,30.10
2019-02-02T03:59:20.767Z,30.20
2019-02-02T04:01:56.466Z,30.20
2019-02-02T04:04:29.182Z,30.20
2019-02-02T04:07:01.889Z,30.10
2019-02-02T04:09:34.544Z,30.10
2019-02-02T04:12:08.772Z,30.10
2019-02-02T04:14:41.681Z,29.90
2019-02-02T04:17:14.286Z,29.80
2019-02-02T04:19:47.117Z,29.60
2019-02-02T04:22:19.731Z,29.50
2019-02-02T04:24:52.336Z,29.40
2019-02-02T04:27:25.037Z,29.30
2019-02-02T04:29:58.068Z,29.20
2019-02-02T04:32:30.934Z,29.20
2019-02-02T04:35:03.543Z,29.10
2019-02-02T04:37:38.224Z,29.10
2019-02-02T04:40:12.395Z,29.10
2019-02-02T04:42:45.219Z,29.10
2019-02-02T04:45:21.471Z,29.10
2019-02-02T04:47:56.059Z,29.10
2019-02-02T04:50:28.576Z,29.00
2019-02-02T04:53:01.199Z,29.00
2019-02-02T04:55:34.022Z,28.90
2019-02-02T04:58:06.544Z,28.90
2019-02-02T05:00:39.149Z,28.80
2019-02-02T05:03:11.875Z,28.80
2019-02-02T05:05:44.614Z,28.70
2019-02-02T05:08:17.599Z,28.50
2019-02-02T05:10:50.395Z,28.30
2019-02-02T05:13:23.094Z,28.20
2019-02-02T05:15:55.842Z,28.20
2019-02-02T05:18:28.660Z,28.10
2019-02-02T05:21:01.594Z,28.00
2019-02-02T05:23:34.100Z,27.90
2019-02-02T05:26:06.884Z,27.80
2019-02-02T05:28:39.501Z,27.70
2019-02-02T05:31:15.313Z,27.60
2019-02-02T05:33:53.572Z,27.50
2019-02-02T05:36:24.714Z,27.40
2019-02-02T05:38:58.110Z,27.30
2019-02-02T05:41:30.818Z,27.30
2019-02-02T05:44:04.174Z,27.30
2019-02-02T05:46:36.782Z,27.30
2019-02-02T05:49:09.287Z,27.30
2019-02-02T05:51:42.138Z,27.20
2019-02-02T05:54:14.780Z,27.10
2019-02-02T05:56:48.659Z,27.00
2019-02-02T05:59:22.660Z,26.90
2019-02-02T06:01:55.591Z,26.80
2019-02-02T06:04:28.402Z,26.70
2019-02-02T06:07:01.198Z,26.70
2019-02-02T06:09:33.855Z,26.60
2019-02-02T06:12:16.779Z,26.50
2019-02-02T06:14:44.773Z,26.40
2019-02-02T06:17:18.445Z,26.40
2019-02-02T06:19:51.221Z,26.30
2019-02-02T06:22:24.987Z,26.10
2019-02-02T06:25:00.828Z,26.00
2019-02-02T06:27:33.409Z,25.90
2019-02-02T06:30:06.189Z,25.80
2019-02-02T06:32:38.690Z,25.70
2019-02-02T06:35:19.093Z,25.70
2019-02-02T06:37:51.700Z,25.60
2019-02-02T06:40:24.617Z,25.50
2019-02-02T06:42:57.218Z,25.50
2019-02-02T06:45:35.191Z,25.40
2019-02-02T06:48:08.119Z,25.40
2019-02-02T06:50:40.919Z,25.40
2019-02-02T06:53:13.676Z,25.40
2019-02-02T06:55:46.304Z,25.40
2019-02-02T06:58:19.165Z,25.30
2019-02-02T07:00:51.872Z,25.30
2019-02-02T07:03:24.566Z,25.30
2019-02-02T07:05:57.319Z,25.20
2019-02-02T07:08:29.918Z,25.20
2019-02-02T07:11:02.766Z,25.20
2019-02-02T07:13:36.133Z,25.10
2019-02-02T07:16:09.174Z,25.10
2019-02-02T07:18:41.734Z,25.00
2019-02-02T07:21:14.592Z,24.90
2019-02-02T07:23:47.235Z,24.90
2019-02-02T07:26:20.771Z,24.80
2019-02-02T07:28:53.428Z,24.80
2019-02-02T07:31:27.156Z,24.80
2019-02-02T07:33:59.867Z,24.80
2019-02-02T07:36:33.822Z,24.70
2019-02-02T07:39:07.953Z,24.60
2019-02-02T07:41:43.264Z,24.60
2019-02-02T07:44:14.906Z,24.60
2019-02-02T07:46:47.554Z,24.50
2019-02-02T07:49:20.490Z,24.50
2019-02-02T07:51:54.805Z,24.50
2019-02-02T07:54:27.067Z,24.50
2019-02-02T07:56:59.995Z,24.50
2019-02-02T07:59:33.279Z,24.40
2019-02-02T08:02:05.907Z,24.40
2019-02-02T08:04:38.639Z,24.30
2019-02-02T08:07:13.460Z,24.30
2019-02-02T08:09:46.339Z,24.30
2019-02-02T08:12:19.540Z,24.20
2019-02-02T08:14:52.665Z,24.20
2019-02-02T08:17:25.442Z,24.20
2019-02-02T08:19:58.400Z,24.10
2019-02-02T08:22:31.918Z,24.00
2019-02-02T08:25:06.955Z,23.90
2019-02-02T08:27:39.942Z,23.90
2019-02-02T08:30:20.194Z,23.80
2019-02-02T08:32:52.707Z,23.80
2019-02-02T08:35:27.116Z,23.70
2019-02-02T08:38:04.142Z,23.70
2019-02-02T08:40:49.077Z,23.60
2019-02-02T08:43:22.186Z,23.50
2019-02-02T08:45:57.101Z,23.50
2019-02-02T08:48:29.766Z,23.40
2019-02-02T08:51:04.751Z,23.40
2019-02-02T08:53:51.702Z,23.40
2019-02-02T08:56:24.709Z,23.40
2019-02-02T08:59:04.739Z,23.40
2019-02-02T09:01:49.714Z,23.30
2019-02-02T09:04:26.562Z,23.30
2019-02-02T09:07:20.305Z,23.30
2019-02-02T09:09:36.932Z,23.20
2019-02-02T09:18:43.170Z,23.10
2019-02-02T09:21:15.969Z,23.10
2019-02-02T09:23:53.254Z,23.10
2019-02-02T09:26:27.265Z,23.10
2019-02-02T09:28:59.848Z,23.10
2019-02-02T09:31:32.813Z,23.10
2019-02-02T09:34:05.382Z,23.10
2019-02-02T09:36:38.121Z,23.10
2019-02-02T09:39:11.469Z,23.10
2019-02-02T09:41:44.109Z,23.10
2019-02-02T09:44:17.130Z,23.10
2019-02-02T09:46:49.678Z,23.10
2019-02-02T09:49:22.588Z,23.10
2019-02-02T09:51:58.081Z,23.10
2019-02-02T09:54:31.905Z,23.10
2019-02-02T09:57:04.462Z,23.10
2019-02-02T09:59:38.259Z,23.20
2019-02-02T10:02:11.125Z,23.10
2019-02-02T10:04:58.060Z,23.10
2019-02-02T10:07:30.680Z,23.10
2019-02-02T10:10:03.386Z,23.00
2019-02-02T10:12:36.446Z,22.90
2019-02-02T10:15:10.877Z,22.90
2019-02-02T10:17:43.701Z,22.80
2019-02-02T10:20:18.341Z,22.80
2019-02-02T10:22:51.190Z,22.70
2019-02-02T10:25:28.179Z,22.60
2019-02-02T10:28:01.273Z,22.60
2019-02-02T10:30:35.436Z,22.60
2019-02-02T10:33:08.484Z,22.50
2019-02-02T10:35:41.266Z,22.50
2019-02-02T10:38:20.160Z,22.50
2019-02-02T10:40:52.881Z,22.50
2019-02-02T10:43:25.592Z,22.60
2019-02-02T10:45:58.416Z,22.60
2019-02-02T10:48:31.244Z,22.60
2019-02-02T10:51:03.825Z,22.70
2019-02-02T10:53:39.536Z,22.70
2019-02-02T10:56:12.233Z,22.70
2019-02-02T10:58:44.847Z,22.70
2019-02-02T11:01:17.613Z,22.80
2019-02-02T11:03:50.227Z,22.80
2019-02-02T11:06:23.264Z,22.80
2019-02-02T11:08:55.832Z,22.90
2019-02-02T11:11:28.780Z,22.90
2019-02-02T11:14:01.579Z,22.90
2019-02-02T11:16:34.427Z,22.90
2019-02-02T11:19:07.457Z,22.90
2019-02-02T11:21:40.988Z,22.90
2019-02-02T11:24:14.147Z,22.90
2019-02-02T11:26:46.815Z,22.90
2019-02-02T11:29:19.492Z,22.90
2019-02-02T11:32:02.511Z,22.90
2019-02-02T11:34:26.268Z,22.90
2019-02-02T11:36:59.042Z,22.90
2019-02-02T11:39:31.682Z,22.90
2019-02-02T11:42:04.181Z,22.90
2019-02-02T11:44:36.946Z,22.90
2019-02-02T11:47:09.658Z,22.90
2019-02-02T11:49:42.491Z,22.90
2019-02-02T11:52:15.122Z,22.90
2019-02-02T11:54:47.927Z,22.90
2019-02-02T11:57:20.718Z,22.80
2019-02-02T11:59:53.599Z,22.80
2019-02-02T12:02:26.715Z,22.80
2019-02-02T12:04:59.247Z,22.70
2019-02-02T12:07:31.880Z,22.70
2019-02-02T12:10:04.720Z,22.70
2019-02-02T12:12:37.211Z,22.70
2019-02-02T12:15:12.145Z,22.70
2019-02-02T12:17:45.188Z,22.70
2019-02-02T12:20:19.744Z,22.70
2019-02-02T12:22:52.572Z,22.70
2019-02-02T12:25:43.156Z,22.70
2019-02-02T12:28:15.794Z,22.70
2019-02-02T12:30:48.636Z,22.70
2019-02-02T12:33:21.334Z,22.70
2019-02-02T12:35:54.270Z,22.70
2019-02-02T12:38:26.823Z,22.70
2019-02-02T12:40:59.730Z,22.70
2019-02-02T12:43:32.802Z,22.70
2019-02-02T12:46:05.450Z,22.70
2019-02-02T12:48:38.391Z,22.60
2019-02-02T12:51:11.215Z,22.60
2019-02-02T12:53:43.742Z,22.60
2019-02-02T12:56:16.572Z,22.60
2019-02-02T12:58:50.197Z,22.60
2019-02-02T13:01:22.932Z,22.60
2019-02-02T13:04:01.782Z,22.60
2019-02-02T13:06:29.505Z,22.60
2019-02-02T13:09:02.362Z,22.60
2019-02-02T13:11:35.324Z,22.60
2019-02-02T13:14:08.128Z,22.60
2019-02-02T13:16:40.876Z,22.60
2019-02-02T13:19:13.993Z,22.60
2019-02-02T13:21:47.973Z,22.60
2019-02-02T13:24:20.717Z,22.60
2019-02-02T13:26:53.246Z,22.50
2019-02-02T13:29:25.882Z,22.50
2019-02-02T13:31:58.535Z,22.50
2019-02-02T13:34:31.226Z,22.50
2019-02-02T13:37:03.815Z,22.50
2019-02-02T13:39:36.298Z,22.50
2019-02-02T13:42:08.927Z,22.50
2019-02-02T13:44:41.715Z,22.50
2019-02-02T13:47:14.219Z,22.50
2019-02-02T13:49:46.847Z,22.50
2019-02-02T13:52:19.624Z,22.50
2019-02-02T13:54:52.136Z,22.50
2019-02-02T13:57:24.827Z,22.50
2019-02-02T13:59:57.345Z,22.50
2019-02-02T14:02:31.022Z,22.40
2019-02-02T14:05:03.635Z,22.40
2019-02-02T14:07:36.219Z,22.40
2019-02-02T14:10:10.839Z,22.40
2019-02-02T14:12:43.431Z,22.40
2019-02-02T14:15:17.577Z,22.40
2019-02-02T14:17:50.263Z,22.40
2019-02-02T14:20:22.860Z,22.40
2019-02-02T14:22:56.337Z,22.30
2019-02-02T14:25:30.813Z,22.30
2019-02-02T14:28:04.074Z,22.30
2019-02-02T14:30:36.801Z,22.30
2019-02-02T14:33:14.424Z,22.30
2019-02-02T14:35:43.289Z,22.30
2019-02-02T14:38:16.202Z,22.30
2019-02-02T14:40:48.743Z,22.20
2019-02-02T14:43:21.334Z,22.20
2019-02-02T14:45:54.114Z,22.20
2019-02-02T14:48:26.718Z,22.20
2019-02-02T14:50:59.221Z,22.20
2019-02-02T14:53:32.083Z,22.20
2019-02-02T14:56:04.843Z,22.20
2019-02-02T14:58:37.643Z,22.20
2019-02-02T15:01:10.201Z,22.10
2019-02-02T15:03:44.091Z,22.10
2019-02-02T15:06:16.797Z,22.10
2019-02-02T15:08:49.326Z,22.10
2019-02-02T15:11:22.248Z,22.10
2019-02-02T15:13:54.860Z,22.00
2019-02-02T15:16:27.789Z,22.00
2019-02-02T15:19:00.409Z,22.00
2019-02-02T15:21:33.027Z,22.00
2019-02-02T15:24:05.951Z,22.00
2019-02-02T15:26:38.534Z,22.00
2019-02-02T15:29:11.034Z,22.00
2019-02-02T15:31:43.655Z,21.90
2019-02-02T15:34:17.394Z,21.90
2019-02-02T15:36:49.935Z,21.90
2019-02-02T15:39:22.744Z,21.90
2019-02-02T15:41:55.343Z,21.90
2019-02-02T15:44:29.247Z,21.90
2019-02-02T15:47:01.831Z,21.90
2019-02-02T15:49:34.527Z,21.80
2019-02-02T15:52:07.123Z,21.80
2019-02-02T15:54:39.602Z,21.80
2019-02-02T15:57:12.379Z,21.80
2019-02-02T15:59:44.879Z,21.90
2019-02-02T16:02:17.703Z,21.90
2019-02-02T16:04:50.203Z,21.90
2019-02-02T16:07:23.491Z,21.90
2019-02-02T16:09:56.120Z,21.90
2019-02-02T16:12:29.161Z,21.80
2019-02-02T16:15:01.896Z,21.80
2019-02-02T16:17:35.496Z,21.80
2019-02-02T16:20:10.117Z,21.80
2019-02-02T16:22:42.802Z,21.80
2019-02-02T16:25:16.277Z,21.70
2019-02-02T16:27:50.102Z,21.60
2019-02-02T16:30:27.494Z,21.60
2019-02-02T16:33:00.289Z,21.60
2019-02-02T16:35:32.790Z,21.60
2019-02-02T16:38:06.105Z,21.60
2019-02-02T16:40:38.822Z,21.60
2019-02-02T16:43:11.702Z,21.50
2019-02-02T16:45:48.391Z,21.50
2019-02-02T16:48:21.037Z,21.50
2019-02-02T16:50:56.583Z,21.50
2019-02-02T16:53:27.641Z,21.50
2019-02-02T16:56:00.219Z,21.50
2019-02-02T16:58:33.019Z,21.40
2019-02-02T17:01:05.709Z,21.40
2019-02-02T17:03:39.045Z,21.40
2019-02-02T17:06:12.998Z,21.40
2019-02-02T17:08:49.838Z,21.40
2019-02-02T17:11:22.480Z,21.40
2019-02-02T17:19:59.336Z,21.30
2019-02-02T17:22:32.167Z,21.30
2019-02-02T17:25:05.909Z,21.30
2019-02-02T17:27:38.711Z,21.30
2019-02-02T17:30:17.140Z,21.30
2019-02-02T17:32:49.720Z,21.30
2019-02-02T17:35:22.463Z,21.30
2019-02-02T17:37:55.047Z,21.20
2019-02-02T17:40:29.456Z,21.30
2019-02-02T17:43:01.944Z,21.20
2019-02-02T17:45:34.736Z,21.20
2019-02-02T17:48:07.334Z,21.20
2019-02-02T17:50:40.164Z,21.20
2019-02-02T17:53:12.950Z,21.20
2019-02-02T17:55:45.437Z,21.20
2019-02-02T17:58:18.139Z,21.20
2019-02-02T18:00:51.794Z,21.20
2019-02-02T18:03:24.610Z,21.20
2019-02-02T18:05:57.270Z,21.20
2019-02-02T18:08:30.166Z,21.20
2019-02-02T18:11:02.857Z,21.20
2019-02-02T18:13:35.671Z,21.10
2019-02-02T18:16:08.483Z,21.10
2019-02-02T18:18:41.187Z,21.00
2019-02-02T18:21:13.688Z,21.00
2019-02-02T18:23:46.255Z,21.00
2019-02-02T18:26:23.511Z,21.00
2019-02-02T18:28:57.726Z,21.00
2019-02-02T18:31:32.725Z,21.00
2019-02-02T18:34:11.404Z,21.00
2019-02-02T18:36:43.884Z,21.00
2019-02-02T18:39:17.651Z,21.00
2019-02-02T18:41:50.660Z,21.10
2019-02-02T18:44:23.970Z,21.10
2019-02-02T18:46:57.875Z,21.10
2019-02-02T18:49:30.736Z,21.20
2019-02-02T18:52:06.097Z,21.20
2019-02-02T18:54:37.464Z,21.30
2019-02-02T18:57:10.168Z,21.30
2019-02-02T18:59:43.308Z,21.30
2019-02-02T19:02:15.857Z,21.40
2019-02-02T19:04:49.626Z,21.40
2019-02-02T19:07:22.269Z,21.50
2019-02-02T19:09:55.018Z,21.60
2019-02-02T19:12:27.659Z,21.70
2019-02-02T19:15:00.803Z,21.80
2019-02-02T19:17:33.404Z,22.00
2019-02-02T19:20:07.011Z,22.10
2019-02-02T19:22:39.616Z,22.30
2019-02-02T19:25:12.968Z,22.40
2019-02-02T19:27:46.544Z,22.40
2019-02-02T19:30:22.769Z,22.40
2019-02-02T19:32:55.269Z,22.40
2019-02-02T19:35:27.992Z,22.50
2019-02-02T19:38:01.689Z,22.50
2019-02-02T19:40:34.229Z,22.60
2019-02-02T19:43:07.239Z,22.70
2019-02-02T19:45:39.750Z,22.80
2019-02-02T19:48:13.545Z,23.00
2019-02-02T19:50:46.084Z,23.20
2019-02-02T19:53:18.794Z,23.40
2019-02-02T19:55:51.907Z,23.60
2019-02-02T19:58:24.342Z,23.70
2019-02-02T20:00:56.866Z,23.80
2019-02-02T20:03:29.418Z,24.00
2019-02-02T20:06:01.801Z,24.10
2019-02-02T20:08:34.745Z,24.30
2019-02-02T20:11:07.234Z,24.50
2019-02-02T20:13:39.734Z,24.70
2019-02-02T20:16:12.393Z,24.80
2019-02-02T20:18:44.777Z,25.00
2019-02-02T20:21:17.794Z,25.20
2019-02-02T20:23:50.691Z,25.40
2019-02-02T20:26:23.454Z,25.50
2019-02-02T20:28:56.765Z,25.60
2019-02-02T20:31:29.769Z,25.70
2019-02-02T20:34:02.237Z,25.70
2019-02-02T20:36:35.301Z,25.70
2019-02-02T20:39:09.640Z,25.80
2019-02-02T20:41:42.098Z,26.00
2019-02-02T20:44:14.929Z,26.10
2019-02-02T20:46:47.374Z,26.30
2019-02-02T20:49:20.038Z,26.60
2019-02-02T20:51:52.815Z,26.80
2019-02-02T20:54:25.180Z,27.00
2019-02-02T20:56:57.835Z,27.10
2019-02-02T20:59:30.619Z,27.00
2019-02-02T21:02:03.436Z,27.00
2019-02-02T21:04:35.621Z,26.80
2019-02-02T21:07:09.242Z,26.60
2019-02-02T21:09:41.687Z,26.40
2019-02-02T21:12:14.393Z,26.30
2019-02-02T21:14:47.121Z,26.10
2019-02-02T21:17:22.517Z,26.10
2019-02-02T21:19:55.672Z,26.10
2019-02-02T21:22:29.658Z,26.30
2019-02-02T21:28:12.713Z,26.60
2019-02-02T21:31:10.326Z,26.80
2019-02-02T21:33:45.074Z,26.90
2019-02-02T21:36:17.620Z,26.90
2019-02-02T21:38:50.244Z,27.10
2019-02-02T21:41:23.021Z,27.20
2019-02-02T21:43:56.752Z,27.10
2019-02-02T21:46:29.446Z,27.10
2019-02-02T21:49:02.218Z,27.00
2019-02-02T21:51:35.420Z,26.90
2019-02-02T21:54:08.800Z,26.80
2019-02-02T21:56:41.185Z,26.70
2019-02-02T21:59:13.603Z,26.70
2019-02-02T22:01:47.268Z,26.70
2019-02-02T22:04:19.628Z,26.50
2019-02-02T22:06:52.097Z,26.30
2019-02-02T22:09:28.041Z,26.20
2019-02-02T22:12:00.550Z,26.20
2019-02-02T22:14:33.328Z,26.40
2019-02-02T22:17:05.709Z,26.50
2019-02-02T22:19:37.974Z,26.50
2019-02-02T22:22:11.262Z,26.50
2019-02-02T22:24:43.716Z,26.80
2019-02-02T22:27:16.253Z,27.00
2019-02-02T22:29:49.928Z,27.40
2019-02-02T22:32:23.312Z,28.00
2019-02-02T22:34:58.759Z,28.50
2019-02-02T22:37:30.377Z,28.60
2019-02-02T22:40:02.847Z,28.60
2019-02-02T22:42:35.677Z,28.40
2019-02-02T22:45:11.554Z,28.30
2019-02-02T22:47:44.268Z,28.70
2019-02-02T22:50:21.322Z,28.90
2019-02-02T22:52:54.918Z,29.40
2019-02-02T22:55:27.696Z,29.80
2019-02-02T22:58:01.386Z,30.00
2019-02-02T23:01:01.814Z,30.40
2019-02-02T23:03:42.314Z,30.90
2019-02-02T23:06:46.713Z,31.00
2019-02-02T23:09:40.383Z,31.00
2019-02-02T23:12:25.586Z,31.20
2019-02-02T23:15:17.374Z,30.60
2019-02-02T23:17:43.742Z,30.80
2019-02-02T23:20:16.738Z,30.50
2019-02-02T23:22:49.268Z,31.00
2019-02-02T23:25:23.116Z,31.20
2019-02-02T23:27:55.647Z,31.60
2019-02-02T23:30:28.225Z,32.10
2019-02-02T23:33:00.710Z,32.60
2019-02-02T23:35:34.717Z,32.90
2019-02-02T23:38:07.294Z,33.20
2019-02-02T23:40:39.792Z,33.40
2019-02-02T23:43:15.281Z,33.50
2019-02-02T23:45:46.228Z,33.50
2019-02-02T23:48:19.138Z,33.60
2019-02-02T23:50:54.394Z,33.70
2019-02-02T23:53:28.196Z,33.60
2019-02-02T23:56:00.771Z,33.60
2019-02-02T23:58:33.244Z,33.80
